sensor_id;sensor_type;location;lat;lon;timestamp;pressure;altitude;pressure_sealevel;temperature;humidity
44079;BME280;29744;49.078;12.878;2024-01-15T00:04:07;94922.13;;;14.64;33.31
44079;BME280;29744;49.078;12.878;2024-01-15T00:09:07;94923.63;;;14.61;33.32
44079;BME280;29744;49.078;12.878;2024-01-15T00:14:08;94914.72;;;14.57;33.35
44079;BME280;29744;49.078;12.878;2024-01-15T00:19:08;94918.13;;;14.54;33.26
44079;BME280;29744;49.078;12.878;2024-01-15T00:24:08;94912.66;;;14.50;32.97
44079;BME280;29744;49.078;12.878;2024-01-15T00:29:09;94910.69;;;14.47;33.42
44079;BME280;29744;49.078;12.878;2024-01-15T00:34:09;94909.50;;;14.45;33.08
44079;BME280;29744;49.078;12.878;2024-01-15T00:39:10;94899.44;;;14.42;33.55
44079;BME280;29744;49.078;12.878;2024-01-15T00:44:10;94895.88;;;14.38;33.34
44079;BME280;29744;49.078;12.878;2024-01-15T00:49:12;94890.06;;;14.36;33.10
44079;BME280;29744;49.078;12.878;2024-01-15T00:54:13;94871.13;;;14.32;33.49
44079;BME280;29744;49.078;12.878;2024-01-15T00:59:13;94870.72;;;14.30;33.19
44079;BME280;29744;49.078;12.878;2024-01-15T01:04:15;94889.16;;;14.28;33.37
44079;BME280;29744;49.078;12.878;2024-01-15T01:09:15;94898.75;;;14.26;33.19
44079;BME280;29744;49.078;12.878;2024-01-15T01:14:15;94898.34;;;14.24;33.25
44079;BME280;29744;49.078;12.878;2024-01-15T01:19:15;94910.25;;;14.23;33.56
44079;BME280;29744;49.078;12.878;2024-01-15T01:24:16;94917.91;;;14.21;33.51
44079;BME280;29744;49.078;12.878;2024-01-15T01:29:17;94928.25;;;14.18;33.15
44079;BME280;29744;49.078;12.878;2024-01-15T01:34:17;94920.09;;;14.15;33.79
44079;BME280;29744;49.078;12.878;2024-01-15T01:39:18;94930.47;;;14.13;33.68
44079;BME280;29744;49.078;12.878;2024-01-15T01:44:18;94941.59;;;14.11;33.33
44079;BME280;29744;49.078;12.878;2024-01-15T01:49:18;94927.69;;;14.09;33.30
44079;BME280;29744;49.078;12.878;2024-01-15T01:54:19;94929.97;;;14.07;33.76
44079;BME280;29744;49.078;12.878;2024-01-15T01:59:21;94918.78;;;14.05;33.55
44079;BME280;29744;49.078;12.878;2024-01-15T02:04:24;94927.56;;;14.02;33.47
44079;BME280;29744;49.078;12.878;2024-01-15T02:09:24;94943.31;;;14.00;33.71
44079;BME280;29744;49.078;12.878;2024-01-15T02:14:25;94939.41;;;13.98;33.87
44079;BME280;29744;49.078;12.878;2024-01-15T02:19:25;94932.81;;;13.95;33.45
44079;BME280;29744;49.078;12.878;2024-01-15T02:24:25;94953.19;;;13.93;33.46
44079;BME280;29744;49.078;12.878;2024-01-15T02:29:26;94927.38;;;13.92;33.46
44079;BME280;29744;49.078;12.878;2024-01-15T02:34:26;94944.25;;;13.89;33.64
44079;BME280;29744;49.078;12.878;2024-01-15T02:39:26;94969.63;;;13.88;33.56
44079;BME280;29744;49.078;12.878;2024-01-15T02:44:27;94988.84;;;13.86;33.99
44079;BME280;29744;49.078;12.878;2024-01-15T02:49:27;94988.41;;;13.84;33.65
44079;BME280;29744;49.078;12.878;2024-01-15T02:54:28;94994.16;;;13.82;33.52
44079;BME280;29744;49.078;12.878;2024-01-15T02:59:28;94992.16;;;13.79;33.59
44079;BME280;29744;49.078;12.878;2024-01-15T03:04:28;94996.31;;;13.77;33.99
44079;BME280;29744;49.078;12.878;2024-01-15T03:09:29;94982.84;;;13.77;33.86
44079;BME280;29744;49.078;12.878;2024-01-15T03:14:29;94974.34;;;13.75;34.06
44079;BME280;29744;49.078;12.878;2024-01-15T03:19:29;94976.63;;;13.73;34.03
44079;BME280;29744;49.078;12.878;2024-01-15T03:24:31;94977.75;;;13.72;34.30
44079;BME280;29744;49.078;12.878;2024-01-15T03:29:32;94983.50;;;13.70;33.65
44079;BME280;29744;49.078;12.878;2024-01-15T03:34:32;94984.97;;;13.68;34.19
44079;BME280;29744;49.078;12.878;2024-01-15T03:39:32;94974.53;;;13.66;33.74
44079;BME280;29744;49.078;12.878;2024-01-15T03:44:33;94976.03;;;13.64;34.00
44079;BME280;29744;49.078;12.878;2024-01-15T03:49:33;94972.56;;;13.63;33.65
44079;BME280;29744;49.078;12.878;2024-01-15T03:54:33;94972.91;;;13.62;33.93
44079;BME280;29744;49.078;12.878;2024-01-15T03:59:34;94965.19;;;13.60;34.23
44079;BME280;29744;49.078;12.878;2024-01-15T04:04:35;94957.44;;;13.59;34.12
44079;BME280;29744;49.078;12.878;2024-01-15T04:09:35;94955.13;;;13.57;34.31
44079;BME280;29744;49.078;12.878;2024-01-15T04:14:35;94957.03;;;13.57;34.24
44079;BME280;29744;49.078;12.878;2024-01-15T04:19:36;94959.28;;;13.54;33.83
44079;BME280;29744;49.078;12.878;2024-01-15T04:24:36;94956.94;;;13.53;33.90
44079;BME280;29744;49.078;12.878;2024-01-15T04:29:40;94961.56;;;13.52;33.85
44079;BME280;29744;49.078;12.878;2024-01-15T04:34:40;94958.09;;;13.52;34.44
44079;BME280;29744;49.078;12.878;2024-01-15T04:39:40;94957.31;;;13.51;33.91
44079;BME280;29744;49.078;12.878;2024-01-15T04:44:41;94970.41;;;13.53;33.99
44079;BME280;29744;49.078;12.878;2024-01-15T04:49:41;94958.16;;;13.55;33.85
44079;BME280;29744;49.078;12.878;2024-01-15T04:54:41;94967.09;;;13.60;34.43
44079;BME280;29744;49.078;12.878;2024-01-15T04:59:42;94964.91;;;13.65;34.17
44079;BME280;29744;49.078;12.878;2024-01-15T05:04:42;94954.28;;;13.72;33.98
44079;BME280;29744;49.078;12.878;2024-01-15T05:09:42;94940.63;;;13.81;34.41
44079;BME280;29744;49.078;12.878;2024-01-15T05:14:43;94940.06;;;13.91;34.18
44079;BME280;29744;49.078;12.878;2024-01-15T05:19:43;94937.22;;;14.03;33.99
44079;BME280;29744;49.078;12.878;2024-01-15T05:24:43;94937.06;;;14.15;34.47
44079;BME280;29744;49.078;12.878;2024-01-15T05:29:43;94950.84;;;14.30;34.45
44079;BME280;29744;49.078;12.878;2024-01-15T05:34:44;94952.22;;;14.43;34.27
44079;BME280;29744;49.078;12.878;2024-01-15T05:39:44;94949.78;;;14.57;33.84
44079;BME280;29744;49.078;12.878;2024-01-15T05:44:44;94948.09;;;14.72;33.74
44079;BME280;29744;49.078;12.878;2024-01-15T05:49:45;94930.59;;;14.85;33.80
44079;BME280;29744;49.078;12.878;2024-01-15T05:54:45;94943.94;;;15.01;33.99
44079;BME280;29744;49.078;12.878;2024-01-15T05:59:45;94935.31;;;15.14;33.94
44079;BME280;29744;49.078;12.878;2024-01-15T06:04:46;94931.66;;;15.30;33.66
44079;BME280;29744;49.078;12.878;2024-01-15T06:09:46;94939.56;;;15.42;33.70
44079;BME280;29744;49.078;12.878;2024-01-15T06:14:46;94929.31;;;15.55;33.66
44079;BME280;29744;49.078;12.878;2024-01-15T06:19:47;94935.25;;;15.67;33.50
44079;BME280;29744;49.078;12.878;2024-01-15T06:24:47;94916.13;;;15.80;33.14
44079;BME280;29744;49.078;12.878;2024-01-15T06:29:47;94918.59;;;15.92;32.89
44079;BME280;29744;49.078;12.878;2024-01-15T06:34:48;94921.78;;;16.01;32.72
44079;BME280;29744;49.078;12.878;2024-01-15T06:39:48;94915.31;;;16.09;33.00
44079;BME280;29744;49.078;12.878;2024-01-15T06:44:49;94918.09;;;16.16;32.61
44079;BME280;29744;49.078;12.878;2024-01-15T06:49:49;94921.63;;;16.20;32.65
44079;BME280;29744;49.078;12.878;2024-01-15T06:54:50;94919.72;;;16.24;32.48
44079;BME280;29744;49.078;12.878;2024-01-15T06:59:51;94916.28;;;16.27;32.63
44079;BME280;29744;49.078;12.878;2024-01-15T07:04:51;94913.56;;;16.27;32.69
44079;BME280;29744;49.078;12.878;2024-01-15T07:09:51;94912.41;;;16.28;32.72
44079;BME280;29744;49.078;12.878;2024-01-15T07:14:52;94922.47;;;16.28;32.64
44079;BME280;29744;49.078;12.878;2024-01-15T07:19:52;94919.72;;;16.24;32.43
44079;BME280;29744;49.078;12.878;2024-01-15T07:24:53;94923.16;;;16.21;31.88
44079;BME280;29744;49.078;12.878;2024-01-15T07:29:53;94923.13;;;16.18;32.08
44079;BME280;29744;49.078;12.878;2024-01-15T07:34:53;94921.16;;;16.15;32.00
44079;BME280;29744;49.078;12.878;2024-01-15T07:39:54;94923.06;;;16.10;31.79
44079;BME280;29744;49.078;12.878;2024-01-15T07:44:54;94928.78;;;16.05;32.09
44079;BME280;29744;49.078;12.878;2024-01-15T07:49:54;94913.31;;;16.02;32.07
44079;BME280;29744;49.078;12.878;2024-01-15T07:54:55;94912.50;;;15.98;31.79
44079;BME280;29744;49.078;12.878;2024-01-15T07:59:56;94917.84;;;15.95;32.33
44079;BME280;29744;49.078;12.878;2024-01-15T08:04:56;94914.72;;;15.89;32.27
44079;BME280;29744;49.078;12.878;2024-01-15T08:09:56;94921.22;;;15.85;32.37
44079;BME280;29744;49.078;12.878;2024-01-15T08:14:57;94911.50;;;15.80;32.23
44079;BME280;29744;49.078;12.878;2024-01-15T08:19:57;94911.03;;;15.74;32.25
44079;BME280;29744;49.078;12.878;2024-01-15T08:24:58;94913.28;;;15.69;30.88
44079;BME280;29744;49.078;12.878;2024-01-15T08:29:58;94901.19;;;15.59;30.51
44079;BME280;29744;49.078;12.878;2024-01-15T08:34:58;94896.78;;;15.48;30.09
44079;BME280;29744;49.078;12.878;2024-01-15T08:39:58;94883.16;;;15.37;29.56
44079;BME280;29744;49.078;12.878;2024-01-15T08:44:59;94885.72;;;15.26;29.24
44079;BME280;29744;49.078;12.878;2024-01-15T08:49:59;94867.84;;;15.18;29.27
44079;BME280;29744;49.078;12.878;2024-01-15T08:55:00;94870.81;;;15.09;29.19
44079;BME280;29744;49.078;12.878;2024-01-15T09:00:01;94878.81;;;15.02;28.77
44079;BME280;29744;49.078;12.878;2024-01-15T09:05:01;94865.13;;;14.92;28.16
44079;BME280;29744;49.078;12.878;2024-01-15T09:10:04;94872.72;;;14.82;28.23
44079;BME280;29744;49.078;12.878;2024-01-15T09:15:05;94874.88;;;14.73;28.06
44079;BME280;29744;49.078;12.878;2024-01-15T09:20:06;94871.28;;;14.66;27.90
44079;BME280;29744;49.078;12.878;2024-01-15T09:25:07;94876.53;;;14.55;27.38
44079;BME280;29744;49.078;12.878;2024-01-15T09:30:09;94869.44;;;14.47;27.67
44079;BME280;29744;49.078;12.878;2024-01-15T09:35:10;94880.13;;;14.40;27.78
44079;BME280;29744;49.078;12.878;2024-01-15T09:40:13;94892.41;;;14.37;28.08
44079;BME280;29744;49.078;12.878;2024-01-15T09:45:17;94888.50;;;14.35;28.41
44079;BME280;29744;49.078;12.878;2024-01-15T09:50:17;94883.13;;;14.35;28.39
44079;BME280;29744;49.078;12.878;2024-01-15T09:55:18;94883.13;;;14.35;28.80
44079;BME280;29744;49.078;12.878;2024-01-15T10:00:18;94887.38;;;14.36;28.78
44079;BME280;29744;49.078;12.878;2024-01-15T10:05:19;94873.91;;;14.36;29.10
44079;BME280;29744;49.078;12.878;2024-01-15T10:10:19;94876.94;;;14.34;29.33
44079;BME280;29744;49.078;12.878;2024-01-15T10:15:22;94865.81;;;14.36;29.23
44079;BME280;29744;49.078;12.878;2024-01-15T10:20:23;94858.06;;;14.34;29.61
44079;BME280;29744;49.078;12.878;2024-01-15T10:25:24;94859.22;;;14.33;29.45
44079;BME280;29744;49.078;12.878;2024-01-15T10:30:25;94859.56;;;14.32;29.96
44079;BME280;29744;49.078;12.878;2024-01-15T10:35:27;94852.25;;;14.32;29.89
44079;BME280;29744;49.078;12.878;2024-01-15T10:40:29;94850.69;;;14.31;29.80
44079;BME280;29744;49.078;12.878;2024-01-15T10:45:29;94846.44;;;14.30;29.79
44079;BME280;29744;49.078;12.878;2024-01-15T10:50:31;94841.41;;;14.29;30.29
44079;BME280;29744;49.078;12.878;2024-01-15T10:55:33;94831.75;;;14.28;30.08
44079;BME280;29744;49.078;12.878;2024-01-15T11:00:35;94830.22;;;14.27;30.54
44079;BME280;29744;49.078;12.878;2024-01-15T11:05:44;94824.41;;;14.25;30.38
44079;BME280;29744;49.078;12.878;2024-01-15T11:10:48;94823.19;;;14.22;30.23
44079;BME280;29744;49.078;12.878;2024-01-15T11:16:09;94826.22;;;14.21;30.38
44079;BME280;29744;49.078;12.878;2024-01-15T11:26:36;94823.47;;;14.17;30.86
44079;BME280;29744;49.078;12.878;2024-01-15T11:41:49;94802.56;;;14.10;30.95
44079;BME280;29744;49.078;12.878;2024-01-15T11:46:58;94804.06;;;14.08;30.73
44079;BME280;29744;49.078;12.878;2024-01-15T11:52:00;94799.03;;;14.06;30.99
44079;BME280;29744;49.078;12.878;2024-01-15T11:57:04;94798.63;;;14.04;30.90
44079;BME280;29744;49.078;12.878;2024-01-15T12:02:09;94800.09;;;14.02;31.39
44079;BME280;29744;49.078;12.878;2024-01-15T12:07:11;94797.00;;;14.00;31.50
44079;BME280;29744;49.078;12.878;2024-01-15T12:17:38;94802.69;;;13.95;31.45
44079;BME280;29744;49.078;12.878;2024-01-15T12:22:39;94797.66;;;13.93;31.62
44079;BME280;29744;49.078;12.878;2024-01-15T12:27:39;94792.97;;;13.90;31.61
44079;BME280;29744;49.078;12.878;2024-01-15T12:32:41;94789.09;;;13.88;31.73
44079;BME280;29744;49.078;12.878;2024-01-15T12:37:43;94797.53;;;13.86;31.47
44079;BME280;29744;49.078;12.878;2024-01-15T12:42:44;94803.28;;;13.84;31.93
44079;BME280;29744;49.078;12.878;2024-01-15T12:47:44;94794.34;;;13.80;32.03
44079;BME280;29744;49.078;12.878;2024-01-15T12:52:45;94792.44;;;13.81;31.58
44079;BME280;29744;49.078;12.878;2024-01-15T12:57:45;94792.34;;;13.77;32.05
44079;BME280;29744;49.078;12.878;2024-01-15T13:02:46;94787.31;;;13.76;31.75
44079;BME280;29744;49.078;12.878;2024-01-15T13:07:46;94782.63;;;13.73;31.97
44079;BME280;29744;49.078;12.878;2024-01-15T13:12:47;94787.25;;;13.72;31.70
44079;BME280;29744;49.078;12.878;2024-01-15T13:17:47;94772.56;;;13.70;32.13
44079;BME280;29744;49.078;12.878;2024-01-15T13:22:47;94775.63;;;13.68;32.31
44079;BME280;29744;49.078;12.878;2024-01-15T13:27:48;94776.00;;;13.67;32.22
44079;BME280;29744;49.078;12.878;2024-01-15T13:32:48;94771.72;;;13.66;31.89
44079;BME280;29744;49.078;12.878;2024-01-15T13:37:48;94770.53;;;13.63;32.21
44079;BME280;29744;49.078;12.878;2024-01-15T13:42:49;94785.13;;;13.62;32.12
44079;BME280;29744;49.078;12.878;2024-01-15T13:47:54;94780.09;;;13.61;32.50
44079;BME280;29744;49.078;12.878;2024-01-15T13:52:55;94793.94;;;13.59;32.27
44079;BME280;29744;49.078;12.878;2024-01-15T13:57:55;94791.59;;;13.58;32.38
44079;BME280;29744;49.078;12.878;2024-01-15T14:02:55;94792.72;;;13.57;32.66
44079;BME280;29744;49.078;12.878;2024-01-15T14:07:56;94797.69;;;13.54;32.08
44079;BME280;29744;49.078;12.878;2024-01-15T14:12:57;94804.22;;;13.53;32.20
44079;BME280;29744;49.078;12.878;2024-01-15T14:17:57;94798.41;;;13.51;32.34
44079;BME280;29744;49.078;12.878;2024-01-15T14:22:58;94808.41;;;13.51;32.68
44079;BME280;29744;49.078;12.878;2024-01-15T14:27:59;94816.06;;;13.49;32.44
44079;BME280;29744;49.078;12.878;2024-01-15T14:32:59;94811.81;;;13.48;32.49
44079;BME280;29744;49.078;12.878;2024-01-15T14:37:59;94816.75;;;13.46;32.37
44079;BME280;29744;49.078;12.878;2024-01-15T14:43:00;94820.59;;;13.45;32.42
44079;BME280;29744;49.078;12.878;2024-01-15T14:48:00;94824.41;;;13.44;32.31
44079;BME280;29744;49.078;12.878;2024-01-15T14:53:00;94819.03;;;13.44;32.20
44079;BME280;29744;49.078;12.878;2024-01-15T14:58:01;94822.88;;;13.43;32.59
44079;BME280;29744;49.078;12.878;2024-01-15T15:03:01;94819.75;;;13.41;32.59
44079;BME280;29744;49.078;12.878;2024-01-15T15:08:02;94837.81;;;13.40;32.86
44079;BME280;29744;49.078;12.878;2024-01-15T15:13:04;94832.78;;;13.39;32.69
44079;BME280;29744;49.078;12.878;2024-01-15T15:18:04;94830.41;;;13.37;32.81
44079;BME280;29744;49.078;12.878;2024-01-15T15:23:05;94847.69;;;13.36;32.62
44079;BME280;29744;49.078;12.878;2024-01-15T15:28:08;94836.50;;;13.34;32.57
44079;BME280;29744;49.078;12.878;2024-01-15T15:33:10;94847.97;;;13.31;32.54
44079;BME280;29744;49.078;12.878;2024-01-15T15:38:10;94846.84;;;13.32;32.66
44079;BME280;29744;49.078;12.878;2024-01-15T15:43:10;94841.03;;;13.30;32.79
44079;BME280;29744;49.078;12.878;2024-01-15T15:48:10;94844.09;;;13.29;33.01
44079;BME280;29744;49.078;12.878;2024-01-15T15:53:11;94852.50;;;13.27;33.10
44079;BME280;29744;49.078;12.878;2024-01-15T15:58:12;94852.50;;;13.27;33.10
44079;BME280;29744;49.078;12.878;2024-01-15T16:03:12;94849.41;;;13.25;32.69
44079;BME280;29744;49.078;12.878;2024-01-15T16:08:13;94855.56;;;13.26;32.93
44079;BME280;29744;49.078;12.878;2024-01-15T16:13:13;94861.72;;;13.26;32.94
44079;BME280;29744;49.078;12.878;2024-01-15T16:18:14;94861.03;;;13.29;32.86
44079;BME280;29744;49.078;12.878;2024-01-15T16:23:14;94854.56;;;13.34;32.96
44079;BME280;29744;49.078;12.878;2024-01-15T16:28:14;94866.97;;;13.38;32.83
44079;BME280;29744;49.078;12.878;2024-01-15T16:33:15;94864.88;;;13.47;33.34
44079;BME280;29744;49.078;12.878;2024-01-15T16:38:15;94872.75;;;13.56;33.37
44079;BME280;29744;49.078;12.878;2024-01-15T16:43:15;94896.84;;;13.68;33.11
44079;BME280;29744;49.078;12.878;2024-01-15T16:48:16;94893.22;;;13.80;33.10
44079;BME280;29744;49.078;12.878;2024-01-15T16:53:16;94897.00;;;13.95;33.35
44079;BME280;29744;49.078;12.878;2024-01-15T16:58:16;94886.50;;;14.09;32.88
44079;BME280;29744;49.078;12.878;2024-01-15T17:03:18;94884.06;;;14.23;33.15
44079;BME280;29744;49.078;12.878;2024-01-15T17:08:18;94892.81;;;14.39;32.65
44079;BME280;29744;49.078;12.878;2024-01-15T17:13:19;94901.56;;;14.56;32.91
44079;BME280;29744;49.078;12.878;2024-01-15T17:18:19;94916.09;;;14.70;33.06
44079;BME280;29744;49.078;12.878;2024-01-15T17:23:20;94919.00;;;14.85;32.54
44079;BME280;29744;49.078;12.878;2024-01-15T17:28:20;94920.78;;;15.00;32.48
44079;BME280;29744;49.078;12.878;2024-01-15T17:33:22;94932.97;;;15.13;32.23
44079;BME280;29744;49.078;12.878;2024-01-15T17:38:23;94931.63;;;15.26;32.10
44079;BME280;29744;49.078;12.878;2024-01-15T17:43:23;94931.03;;;15.40;32.25
44079;BME280;29744;49.078;12.878;2024-01-15T17:48:23;94954.00;;;15.53;32.53
44079;BME280;29744;49.078;12.878;2024-01-15T17:53:25;94943.72;;;15.66;32.13
44079;BME280;29744;49.078;12.878;2024-01-15T17:58:26;94961.66;;;15.77;32.04
44079;BME280;29744;49.078;12.878;2024-01-15T18:03:27;94968.00;;;15.89;32.24
44079;BME280;29744;49.078;12.878;2024-01-15T18:08:28;94977.78;;;16.00;31.80
44079;BME280;29744;49.078;12.878;2024-01-15T18:13:28;94992.22;;;16.12;31.83
44079;BME280;29744;49.078;12.878;2024-01-15T18:18:29;95000.81;;;16.21;31.63
44079;BME280;29744;49.078;12.878;2024-01-15T18:23:29;95000.94;;;16.31;31.68
44079;BME280;29744;49.078;12.878;2024-01-15T18:28:30;95002.97;;;16.38;31.32
44079;BME280;29744;49.078;12.878;2024-01-15T18:33:30;95017.38;;;16.46;31.49
44079;BME280;29744;49.078;12.878;2024-01-15T18:38:30;95028.66;;;16.51;31.54
44079;BME280;29744;49.078;12.878;2024-01-15T18:43:31;95033.34;;;16.54;31.51
44079;BME280;29744;49.078;12.878;2024-01-15T18:48:34;95035.72;;;16.59;31.20
44079;BME280;29744;49.078;12.878;2024-01-15T18:53:35;95029.16;;;16.60;31.50
44079;BME280;29744;49.078;12.878;2024-01-15T18:58:35;95031.50;;;16.62;31.48
44079;BME280;29744;49.078;12.878;2024-01-15T19:03:42;95047.31;;;16.60;31.18
44079;BME280;29744;49.078;12.878;2024-01-15T19:08:42;95040.34;;;16.59;31.18
44079;BME280;29744;49.078;12.878;2024-01-15T19:13:43;95048.06;;;16.57;31.14
44079;BME280;29744;49.078;12.878;2024-01-15T19:18:43;95044.59;;;16.56;30.76
44079;BME280;29744;49.078;12.878;2024-01-15T19:23:44;95049.94;;;16.53;31.26
44079;BME280;29744;49.078;12.878;2024-01-15T19:28:44;95059.56;;;16.50;30.84
44079;BME280;29744;49.078;12.878;2024-01-15T19:33:45;95071.91;;;16.48;30.85
44079;BME280;29744;49.078;12.878;2024-01-15T19:38:45;95061.03;;;16.44;31.15
44079;BME280;29744;49.078;12.878;2024-01-15T19:43:45;95066.81;;;16.42;31.05
44079;BME280;29744;49.078;12.878;2024-01-15T19:48:47;95064.88;;;16.43;31.07
44079;BME280;29744;49.078;12.878;2024-01-15T19:53:47;95062.88;;;16.40;30.81
44079;BME280;29744;49.078;12.878;2024-01-15T19:58:48;95076.41;;;16.40;31.14
44079;BME280;29744;49.078;12.878;2024-01-15T20:03:48;95087.59;;;16.38;31.18
44079;BME280;29744;49.078;12.878;2024-01-15T20:08:48;95100.78;;;16.40;31.05
44079;BME280;29744;49.078;12.878;2024-01-15T20:13:50;95111.59;;;16.40;31.39
44079;BME280;29744;49.078;12.878;2024-01-15T20:18:51;95108.09;;;16.39;31.11
44079;BME280;29744;49.078;12.878;2024-01-15T20:23:51;95133.59;;;16.38;31.19
44079;BME280;29744;49.078;12.878;2024-01-15T20:28:52;95139.00;;;16.38;31.44
44079;BME280;29744;49.078;12.878;2024-01-15T20:33:53;95150.22;;;16.37;31.31
44079;BME280;29744;49.078;12.878;2024-01-15T20:38:53;95161.41;;;16.35;31.47
44079;BME280;29744;49.078;12.878;2024-01-15T20:43:53;95166.38;;;16.33;31.58
44079;BME280;29744;49.078;12.878;2024-01-15T20:48:55;95169.81;;;16.30;31.21
44079;BME280;29744;49.078;12.878;2024-01-15T20:53:55;95179.44;;;16.28;31.28
44079;BME280;29744;49.078;12.878;2024-01-15T20:58:56;95175.91;;;16.24;31.27
44079;BME280;29744;49.078;12.878;2024-01-15T21:03:56;95183.97;;;16.20;31.60
44079;BME280;29744;49.078;12.878;2024-01-15T21:08:56;95185.84;;;16.16;31.17
44079;BME280;29744;49.078;12.878;2024-01-15T21:13:57;95191.22;;;16.13;31.15
44079;BME280;29744;49.078;12.878;2024-01-15T21:18:57;95194.63;;;16.09;31.04
44079;BME280;29744;49.078;12.878;2024-01-15T21:23:58;95210.03;;;16.05;31.08
44079;BME280;29744;49.078;12.878;2024-01-15T21:28:58;95206.06;;;15.99;31.27
44079;BME280;29744;49.078;12.878;2024-01-15T21:33:59;95219.53;;;15.96;31.32
44079;BME280;29744;49.078;12.878;2024-01-15T21:38:59;95208.25;;;15.90;31.34
44079;BME280;29744;49.078;12.878;2024-01-15T21:44:00;95212.03;;;15.86;31.45
44079;BME280;29744;49.078;12.878;2024-01-15T21:49:06;95208.84;;;15.80;31.79
44079;BME280;29744;49.078;12.878;2024-01-15T21:54:06;95214.94;;;15.77;31.30
44079;BME280;29744;49.078;12.878;2024-01-15T21:59:07;95236.50;;;15.73;31.53
44079;BME280;29744;49.078;12.878;2024-01-15T22:04:07;95249.53;;;15.68;31.27
44079;BME280;29744;49.078;12.878;2024-01-15T22:09:07;95251.41;;;15.64;31.49
44079;BME280;29744;49.078;12.878;2024-01-15T22:14:08;95260.56;;;15.59;31.37
44079;BME280;29744;49.078;12.878;2024-01-15T22:19:09;95256.25;;;15.55;31.59
44079;BME280;29744;49.078;12.878;2024-01-15T22:24:09;95261.94;;;15.50;31.89
44079;BME280;29744;49.078;12.878;2024-01-15T22:29:10;95269.97;;;15.46;31.36
44079;BME280;29744;49.078;12.878;2024-01-15T22:34:10;95272.97;;;15.41;31.84
44079;BME280;29744;49.078;12.878;2024-01-15T22:39:11;95277.53;;;15.37;31.85
44079;BME280;29744;49.078;12.878;2024-01-15T22:44:11;95285.13;;;15.31;31.80
44079;BME280;29744;49.078;12.878;2024-01-15T22:49:11;95289.69;;;15.27;31.99
44079;BME280;29744;49.078;12.878;2024-01-15T22:54:12;95296.50;;;15.21;31.84
44079;BME280;29744;49.078;12.878;2024-01-15T22:59:13;95298.34;;;15.17;31.94
44079;BME280;29744;49.078;12.878;2024-01-15T23:04:18;95319.88;;;15.13;32.11
44079;BME280;29744;49.078;12.878;2024-01-15T23:09:19;95330.97;;;15.08;31.70
44079;BME280;29744;49.078;12.878;2024-01-15T23:14:19;95332.03;;;15.04;32.22
44079;BME280;29744;49.078;12.878;2024-01-15T23:19:20;95339.25;;;15.00;31.97
44079;BME280;29744;49.078;12.878;2024-01-15T23:24:20;95344.56;;;14.96;32.20
44079;BME280;29744;49.078;12.878;2024-01-15T23:29:20;95339.09;;;14.93;32.39
44079;BME280;29744;49.078;12.878;2024-01-15T23:34:21;95339.78;;;14.90;32.47
44079;BME280;29744;49.078;12.878;2024-01-15T23:39:21;95347.81;;;14.86;32.06
44079;BME280;29744;49.078;12.878;2024-01-15T23:44:22;95361.22;;;14.82;32.49
44079;BME280;29744;49.078;12.878;2024-01-15T23:49:22;95362.72;;;14.80;32.23
44079;BME280;29744;49.078;12.878;2024-01-15T23:54:22;95372.63;;;14.76;32.02
44079;BME280;29744;49.078;12.878;2024-01-15T23:59:25;95369.84;;;14.72;32.10
